createdAt,value
2017-10-11T00:02:26.358Z,95510.23
2017-10-11T00:04:53.551Z,95510.61
2017-10-11T00:07:21.049Z,95507.60
2017-10-11T00:09:48.275Z,95506.28
2017-10-11T00:12:17.984Z,95509.65
2017-10-11T00:14:52.599Z,95514.00
2017-10-11T00:17:20.055Z,95504.17
2017-10-11T00:19:47.248Z,95502.67
2017-10-11T00:22:14.439Z,95503.42
2017-10-11T00:24:41.649Z,95499.06
2017-10-11T00:27:09.083Z,95498.30
2017-10-11T00:29:36.296Z,95496.79
2017-10-11T00:32:03.471Z,95490.93
2017-10-11T00:34:30.656Z,95489.78
2017-10-11T00:36:58.027Z,95491.69
2017-10-11T00:39:25.262Z,95486.95
2017-10-11T00:41:53.677Z,95485.83
2017-10-11T00:44:20.916Z,95488.84
2017-10-11T00:46:48.137Z,95482.41
2017-10-11T00:49:15.379Z,95481.07
2017-10-11T00:51:54.924Z,95484.09
2017-10-11T00:54:22.233Z,95489.38
2017-10-11T00:56:56.970Z,95487.69
2017-10-11T00:59:24.203Z,95491.28
2017-10-11T01:01:51.374Z,95496.75
2017-10-11T01:04:18.528Z,95492.59
2017-10-11T01:06:45.797Z,95497.31
2017-10-11T01:09:12.951Z,95503.34
2017-10-11T01:11:40.164Z,95500.11
2017-10-11T01:14:07.440Z,95495.35
2017-10-11T01:16:34.588Z,95498.94
2017-10-11T01:19:01.748Z,95500.61
2017-10-11T01:21:29.063Z,95491.88
2017-10-11T01:23:56.242Z,95496.41
2017-10-11T01:26:37.823Z,95497.14
2017-10-11T01:29:06.513Z,95495.02
2017-10-11T01:31:33.686Z,95495.76
2017-10-11T01:34:00.862Z,95502.55
2017-10-11T01:36:28.067Z,95508.59
2017-10-11T01:38:55.223Z,95507.08
2017-10-11T01:41:22.493Z,95511.98
2017-10-11T01:43:49.676Z,95514.59
2017-10-11T01:46:16.853Z,95512.70
2017-10-11T01:48:56.571Z,95519.50
2017-10-11T01:51:23.716Z,95519.87
2017-10-11T01:53:50.926Z,95516.27
2017-10-11T01:58:56.257Z,95517.58
2017-10-11T02:01:23.758Z,95517.56
2017-10-11T02:03:51.032Z,95526.24
2017-10-11T02:09:06.662Z,95531.12
2017-10-11T02:11:54.759Z,95531.50
2017-10-11T02:14:22.238Z,95536.05
2017-10-11T02:16:49.699Z,95536.20
2017-10-11T02:19:17.126Z,95542.27
2017-10-11T02:21:44.318Z,95542.28
2017-10-11T02:24:11.604Z,95541.50
2017-10-11T02:26:38.809Z,95545.66
2017-10-11T02:29:13.929Z,95551.50
2017-10-11T02:31:41.103Z,95553.96
2017-10-11T02:34:08.343Z,95558.31
2017-10-11T02:36:35.613Z,95561.31
2017-10-11T02:39:02.835Z,95559.61
2017-10-11T02:41:30.056Z,95552.64
2017-10-11T02:43:57.236Z,95556.78
2017-10-11T02:49:12.489Z,95552.27
2017-10-11T02:51:39.638Z,95550.73
2017-10-11T02:54:06.824Z,95556.98
2017-10-11T02:59:19.770Z,95546.21
2017-10-11T03:01:46.959Z,95542.81
2017-10-11T03:04:14.186Z,95549.95
2017-10-11T03:06:41.343Z,95546.94
2017-10-11T03:09:08.829Z,95543.16
2017-10-11T03:11:35.999Z,95542.21
2017-10-11T03:16:50.295Z,95543.94
2017-10-11T03:19:24.744Z,95548.09
2017-10-11T03:21:51.962Z,95545.09
2017-10-11T03:24:19.203Z,95546.21
2017-10-11T03:26:46.447Z,95546.05
2017-10-11T03:29:13.645Z,95544.52
2017-10-11T03:31:40.891Z,95548.32
2017-10-11T03:34:08.136Z,95552.09
2017-10-11T03:36:35.367Z,95551.53
2017-10-11T03:39:02.563Z,95550.95
2017-10-11T03:41:29.787Z,95553.04
2017-10-11T03:43:56.932Z,95555.32
2017-10-11T03:46:24.111Z,95558.73
2017-10-11T03:48:51.366Z,95558.73
2017-10-11T03:51:18.617Z,95558.57
2017-10-11T03:53:45.820Z,95570.52
2017-10-11T03:56:13.014Z,95574.34
2017-10-11T03:58:40.347Z,95569.07
2017-10-11T04:01:08.361Z,95565.32
2017-10-11T04:03:35.626Z,95566.67
2017-10-11T04:06:02.946Z,95567.69
2017-10-11T04:08:30.154Z,95569.78
2017-10-11T04:10:57.306Z,95568.51
2017-10-11T04:13:24.495Z,95574.38
2017-10-11T04:15:51.771Z,95573.99
2017-10-11T04:18:18.946Z,95580.08
2017-10-11T04:20:47.244Z,95584.63
2017-10-11T04:23:14.547Z,95581.05
2017-10-11T04:25:41.833Z,95575.58
2017-10-11T04:28:09.011Z,95583.33
2017-10-11T04:30:43.239Z,95578.43
2017-10-11T04:33:10.433Z,95581.27
2017-10-11T04:35:37.925Z,95587.52
2017-10-11T04:38:05.127Z,95597.75
2017-10-11T04:40:32.371Z,95596.41
2017-10-11T04:42:59.657Z,95597.36
2017-10-11T04:45:26.873Z,95600.02
2017-10-11T04:47:54.103Z,95600.42
2017-10-11T04:50:21.372Z,95601.56
2017-10-11T04:52:48.601Z,95604.97
2017-10-11T04:55:15.858Z,95610.10
2017-10-11T04:57:44.553Z,95614.64
2017-10-11T05:00:12.040Z,95614.84
2017-10-11T05:02:40.501Z,95618.83
2017-10-11T05:05:10.823Z,95624.49
2017-10-11T05:07:38.123Z,95628.48
2017-10-11T05:10:05.326Z,95626.61
2017-10-11T05:12:32.523Z,95626.82
2017-10-11T05:14:59.781Z,95632.11
2017-10-11T05:17:26.992Z,95635.19
2017-10-11T05:19:54.337Z,95631.98
2017-10-11T05:22:21.666Z,95633.49
2017-10-11T05:27:23.700Z,95645.27
2017-10-11T05:29:50.941Z,95645.85
2017-10-11T05:32:21.782Z,95643.97
2017-10-11T05:34:49.043Z,95639.23
2017-10-11T05:37:16.247Z,95643.23
2017-10-11T05:39:43.544Z,95644.94
2017-10-11T05:44:48.405Z,95650.66
2017-10-11T05:47:36.689Z,95652.92
2017-10-11T05:50:03.980Z,95655.02
2017-10-11T05:52:31.371Z,95655.21
2017-10-11T05:57:41.336Z,95659.02
2017-10-11T06:00:08.562Z,95660.75
2017-10-11T06:02:35.866Z,95664.92
2017-10-11T06:05:03.093Z,95667.95
2017-10-11T06:07:30.389Z,95662.27
2017-10-11T06:09:57.573Z,95663.80
2017-10-11T06:12:24.838Z,95664.37
2017-10-11T06:14:52.068Z,95674.20
2017-10-11T06:17:19.532Z,95676.09
2017-10-11T06:19:46.924Z,95682.17
2017-10-11T06:24:50.768Z,95688.59
2017-10-11T06:27:18.241Z,95684.06
2017-10-11T06:32:33.311Z,95694.08
2017-10-11T06:35:00.564Z,95693.70
2017-10-11T06:37:31.553Z,95697.31
2017-10-11T06:39:59.915Z,95702.98
2017-10-11T06:42:27.183Z,95706.58
2017-10-11T06:44:54.420Z,95703.94
2017-10-11T06:47:21.714Z,95704.33
2017-10-11T06:49:49.064Z,95696.75
2017-10-11T06:52:16.320Z,95694.27
2017-10-11T06:54:43.479Z,95699.97
2017-10-11T06:57:10.750Z,95700.33
2017-10-11T06:59:38.063Z,95704.13
2017-10-11T07:07:07.956Z,95702.96
2017-10-11T07:09:35.171Z,95709.42
2017-10-11T07:12:02.448Z,95700.86
2017-10-11T07:14:29.744Z,95702.02
2017-10-11T07:16:57.021Z,95707.15
2017-10-11T07:19:24.337Z,95699.36
2017-10-11T07:21:54.741Z,95704.85
2017-10-11T07:24:24.586Z,95712.41
2017-10-11T07:26:52.480Z,95715.48
2017-10-11T07:29:24.985Z,95713.56
2017-10-11T07:36:58.151Z,95715.45
2017-10-11T07:39:25.428Z,95716.95
2017-10-11T07:41:52.890Z,95717.14
2017-10-11T07:51:59.735Z,95714.48
2017-10-11T07:54:29.535Z,95713.15
2017-10-11T08:04:40.536Z,95710.81
2017-10-11T08:07:10.784Z,95711.58
2017-10-11T08:14:45.611Z,95700.18
2017-10-11T08:17:12.924Z,95706.41
2017-10-11T08:19:40.259Z,95702.59
2017-10-11T08:22:07.912Z,95709.27
2017-10-11T08:32:13.477Z,95702.78
2017-10-11T08:42:20.178Z,95695.75
2017-10-11T08:55:36.621Z,95690.98
2017-10-11T09:04:10.714Z,95691.51
2017-10-11T09:09:10.794Z,95688.45
2017-10-11T09:14:16.929Z,95679.53
2017-10-11T09:24:27.587Z,95683.30
2017-10-11T10:20:38.379Z,95632.00
2017-10-11T10:41:31.543Z,95613.97
2017-10-11T10:51:40.549Z,95603.05
2017-10-11T10:59:16.013Z,95588.55
2017-10-11T11:06:47.510Z,95587.90
2017-10-11T11:19:32.264Z,95565.84
2017-10-11T11:24:39.922Z,95565.23
2017-10-11T13:11:17.580Z,95493.98
2017-10-11T14:08:28.238Z,95486.50
2017-10-11T14:10:57.964Z,95477.45
2017-10-11T14:51:47.014Z,95503.36
2017-10-11T14:56:49.549Z,95501.67
2017-10-11T15:04:20.144Z,95505.86
2017-10-11T15:06:47.614Z,95501.70
2017-10-11T15:19:29.922Z,95510.29
2017-10-11T15:37:17.803Z,95523.34
2017-10-11T15:39:48.254Z,95523.17
2017-10-11T15:42:15.661Z,95525.86
2017-10-11T15:44:42.921Z,95530.09
2017-10-11T15:47:11.030Z,95525.49
2017-10-11T15:49:38.421Z,95526.50
2017-10-11T15:52:05.889Z,95528.23
2017-10-11T15:54:33.269Z,95530.16
2017-10-11T15:57:00.946Z,95526.84
2017-10-11T15:59:28.306Z,95532.53
2017-10-11T16:01:55.614Z,95536.22
2017-10-11T16:04:22.922Z,95540.80
2017-10-11T16:06:50.135Z,95544.70
2017-10-11T16:09:17.599Z,95547.80
2017-10-11T16:11:44.766Z,95548.64
2017-10-11T16:14:12.200Z,95547.25
2017-10-11T16:16:39.454Z,95552.73
2017-10-11T16:19:06.673Z,95550.62
2017-10-11T16:21:33.962Z,95552.75
2017-10-11T16:24:01.206Z,95556.75
2017-10-11T16:26:28.548Z,95557.91
2017-10-11T16:28:55.879Z,95555.07
2017-10-11T16:31:23.068Z,95560.84
2017-10-11T16:33:50.378Z,95571.55
2017-10-11T16:36:17.684Z,95563.58
2017-10-11T16:38:44.935Z,95572.41
2017-10-11T16:41:12.143Z,95576.41
2017-10-11T16:43:39.564Z,95577.38
2017-10-11T16:46:06.852Z,95575.70
2017-10-11T16:48:34.408Z,95582.77
2017-10-11T16:51:01.685Z,95583.33
2017-10-11T16:53:28.954Z,95588.16
2017-10-11T16:55:56.214Z,95591.75
2017-10-11T16:58:23.471Z,95596.95
2017-10-11T17:00:50.739Z,95589.12
2017-10-11T17:03:18.277Z,95598.25
2017-10-11T17:05:45.442Z,95599.38
2017-10-11T17:08:12.837Z,95598.98
2017-10-11T17:10:40.103Z,95602.20
2017-10-11T17:13:07.318Z,95599.16
2017-10-11T17:15:35.059Z,95605.08
2017-10-11T17:18:02.425Z,95606.02
2017-10-11T17:20:29.665Z,95604.85
2017-10-11T17:22:56.919Z,95603.89
2017-10-11T17:25:24.162Z,95605.77
2017-10-11T17:27:51.394Z,95609.55
2017-10-11T17:30:18.692Z,95616.05
2017-10-11T17:32:46.036Z,95615.32
2017-10-11T17:35:13.357Z,95611.33
2017-10-11T17:37:40.644Z,95612.84
2017-10-11T17:40:08.184Z,95611.89
2017-10-11T17:42:35.417Z,95615.50
2017-10-11T17:45:02.613Z,95620.45
2017-10-11T17:47:29.860Z,95621.59
2017-10-11T17:49:57.090Z,95627.30
2017-10-11T17:52:24.303Z,95630.55
2017-10-11T17:54:51.612Z,95631.89
2017-10-11T17:57:18.854Z,95633.77
2017-10-11T17:59:46.064Z,95634.36
2017-10-11T18:02:13.274Z,95631.70
2017-10-11T18:04:40.453Z,95636.09
2017-10-11T18:07:08.394Z,95638.38
2017-10-11T18:09:36.039Z,95639.52
2017-10-11T18:12:03.479Z,95640.31
2017-10-11T18:14:30.684Z,95645.82
2017-10-11T18:16:57.987Z,95649.66
2017-10-11T18:19:25.168Z,95650.44
2017-10-11T18:21:52.385Z,95648.91
2017-10-11T18:24:19.556Z,95647.00
2017-10-11T18:26:46.909Z,95655.20
2017-10-11T18:29:14.455Z,95660.16
2017-10-11T18:31:41.716Z,95663.22
2017-10-11T18:34:08.904Z,95660.03
2017-10-11T18:36:36.134Z,95666.91
2017-10-11T18:39:03.421Z,95659.31
2017-10-11T18:41:30.603Z,95669.56
2017-10-11T18:43:57.904Z,95664.06
2017-10-11T18:46:25.187Z,95668.25
2017-10-11T18:48:52.557Z,95673.02
2017-10-11T18:51:19.815Z,95668.47
2017-10-11T18:53:47.022Z,95665.08
2017-10-11T18:56:14.223Z,95670.20
2017-10-11T18:58:41.454Z,95674.23
2017-10-11T19:01:08.695Z,95666.64
2017-10-11T19:03:35.928Z,95670.24
2017-10-11T19:06:03.462Z,95666.44
2017-10-11T19:08:30.738Z,95671.03
2017-10-11T19:10:57.942Z,95673.71
2017-10-11T19:13:25.351Z,95674.30
2017-10-11T19:15:52.549Z,95673.14
2017-10-11T19:18:19.815Z,95673.34
2017-10-11T19:20:47.066Z,95677.73
2017-10-11T19:23:14.374Z,95676.20
2017-10-11T19:25:41.596Z,95674.91
2017-10-11T19:28:08.835Z,95680.06
2017-10-11T19:30:36.061Z,95677.96
2017-10-11T19:33:03.477Z,95679.67
2017-10-11T19:35:31.811Z,95679.47
2017-10-11T19:37:59.157Z,95676.08
2017-10-11T19:40:26.379Z,95677.03
2017-10-11T19:42:53.657Z,95669.82
2017-10-11T19:45:21.032Z,95678.20
2017-10-11T19:47:48.215Z,95676.88
2017-10-11T19:50:15.516Z,95674.81
2017-10-11T19:52:42.887Z,95677.92
2017-10-11T19:55:10.064Z,95674.71
2017-10-11T19:57:37.224Z,95681.14
2017-10-11T20:00:04.435Z,95677.53
2017-10-11T20:02:31.620Z,95679.44
2017-10-11T20:04:58.884Z,95679.09
2017-10-11T20:07:26.187Z,95675.11
2017-10-11T20:09:53.491Z,95672.50
2017-10-11T20:12:20.663Z,95672.90
2017-10-11T20:14:47.976Z,95675.22
2017-10-11T20:17:15.251Z,95673.92
2017-10-11T20:19:43.279Z,95677.36
2017-10-11T20:22:10.728Z,95679.64
2017-10-11T20:24:38.847Z,95684.02
2017-10-11T20:27:06.570Z,95685.74
2017-10-11T20:29:33.770Z,95684.83
2017-10-11T20:32:01.271Z,95684.09
2017-10-11T20:34:28.872Z,95682.77
2017-10-11T20:36:56.126Z,95681.09
2017-10-11T20:39:24.366Z,95673.89
2017-10-11T20:41:51.643Z,95679.80
2017-10-11T20:44:18.937Z,95677.34
2017-10-11T20:46:46.261Z,95675.08
2017-10-11T20:49:13.525Z,95671.65
2017-10-11T20:51:41.096Z,95681.71
2017-10-11T20:54:08.399Z,95676.61
2017-10-11T20:56:35.688Z,95680.41
2017-10-11T20:59:02.959Z,95684.03
2017-10-11T21:01:30.162Z,95683.83
2017-10-11T21:03:57.399Z,95686.30
2017-10-11T21:06:24.558Z,95680.25
2017-10-11T21:08:51.778Z,95687.83
2017-10-11T21:11:19.530Z,95686.86
2017-10-11T21:13:46.752Z,95687.27
2017-10-11T21:16:13.909Z,95691.62
2017-10-11T21:18:41.258Z,95688.41
2017-10-11T21:21:08.513Z,95689.93
2017-10-11T21:23:35.728Z,95689.72
2017-10-11T21:26:02.899Z,95694.67
2017-10-11T21:28:30.150Z,95695.44
2017-10-11T21:30:57.327Z,95698.08
2017-10-11T21:33:24.636Z,95700.73
2017-10-11T21:35:51.852Z,95694.68
2017-10-11T21:38:19.071Z,95694.47
2017-10-11T21:40:46.971Z,95697.53
2017-10-11T21:43:14.258Z,95699.03
2017-10-11T21:45:42.043Z,95698.08
2017-10-11T21:48:09.357Z,95696.56
2017-10-11T21:50:36.705Z,95696.56
2017-10-11T21:53:03.979Z,95697.70
2017-10-11T21:55:31.150Z,95711.17
2017-10-11T21:57:58.410Z,95709.45
2017-10-11T22:00:25.669Z,95714.58
2017-10-11T22:02:52.918Z,95713.63
2017-10-11T22:05:20.179Z,95709.83
2017-10-11T22:07:47.428Z,95710.59
2017-10-11T22:10:14.640Z,95712.67
2017-10-11T22:12:41.841Z,95712.66
2017-10-11T22:15:09.101Z,95713.25
2017-10-11T22:17:36.456Z,95714.56
2017-10-11T22:20:03.839Z,95715.70
2017-10-11T22:22:32.098Z,95711.52
2017-10-11T22:24:59.357Z,95714.75
2017-10-11T22:27:26.562Z,95719.49
2017-10-11T22:29:53.786Z,95713.03
2017-10-11T22:32:21.070Z,95711.52
2017-10-11T22:34:48.445Z,95709.80
2017-10-11T22:37:15.708Z,95710.77
2017-10-11T22:39:43.000Z,95714.92
2017-10-11T22:42:10.315Z,95711.14
2017-10-11T22:44:37.532Z,95708.09
2017-10-11T22:47:04.774Z,95707.15
2017-10-11T22:49:31.994Z,95714.37
2017-10-11T22:51:59.187Z,95715.68
2017-10-11T22:54:26.670Z,95717.16
2017-10-11T22:56:53.881Z,95716.41
2017-10-11T22:59:21.156Z,95715.25
2017-10-11T23:01:48.609Z,95715.06
2017-10-11T23:04:15.830Z,95706.16
2017-10-11T23:06:42.997Z,95714.50
2017-10-11T23:09:10.269Z,95708.24
2017-10-11T23:11:37.603Z,95706.52
2017-10-11T23:14:04.895Z,95707.87
2017-10-11T23:16:33.483Z,95703.89
2017-10-11T23:19:02.837Z,95695.93
2017-10-11T23:21:30.120Z,95695.55
2017-10-11T23:23:57.420Z,95693.44
2017-10-11T23:26:25.683Z,95688.73
2017-10-11T23:28:53.167Z,95694.97
2017-10-11T23:31:20.450Z,95692.69
2017-10-11T23:33:47.631Z,95692.69
2017-10-11T23:36:14.899Z,95689.67
2017-10-11T23:38:45.253Z,95688.70
2017-10-11T23:41:12.737Z,95691.55
2017-10-11T23:43:39.920Z,95689.83
2017-10-11T23:46:07.189Z,95691.15
2017-10-11T23:48:34.715Z,95691.91
2017-10-11T23:51:01.946Z,95694.77
2017-10-11T23:53:29.251Z,95693.61
2017-10-11T23:55:56.474Z,95692.09
2017-10-11T23:58:23.934Z,95695.13
